UAL1762 KDEN-KTUS
Flight info
| Callsign | UAL1762 |
|---|---|
| Flight time | 1h 35m |
| Altitude | 36000 |
| Route | SUDDZ1 SUDDZ ABQ SSO ZONNA2 |
| Aircraft | B738/M-SDE2E3FGHIRWXY/LB1 |
Departure
| Time | 2026-04-23 02:16 |
|---|---|
| Airport | Denver International Airport (KDEN) |
Arrival
| Time | 2026-04-23 03:51 |
|---|---|
| Airport | Tucson International Airport (KTUS) |
| Time | Latitude | Longitude | Altitude | Speed | Heading |
|---|---|---|---|---|---|
| 2026-04-23 01:42 | 39.85330 | -104.67712 | 5385 ft | 0 kts | 12° |
| 2026-04-23 02:02 | 39.85309 | -104.67718 | 5383 ft | 4 kts | 12° |
| 2026-04-23 02:02 | 39.85289 | -104.67723 | 5383 ft | 4 kts | 36° |
| 2026-04-23 02:02 | 39.85280 | -104.67747 | 5384 ft | 2 kts | 90° |
| 2026-04-23 02:03 | 39.85280 | -104.67776 | 5385 ft | 1 kts | 90° |
| 2026-04-23 02:07 | 39.85280 | -104.67756 | 5385 ft | 6 kts | 91° |
| 2026-04-23 02:07 | 39.85278 | -104.67672 | 5384 ft | 12 kts | 92° |
| 2026-04-23 02:07 | 39.85278 | -104.67538 | 5385 ft | 16 kts | 89° |
| 2026-04-23 02:08 | 39.85277 | -104.67390 | 5385 ft | 16 kts | 91° |
| 2026-04-23 02:08 | 39.85274 | -104.67247 | 5385 ft | 16 kts | 89° |
| 2026-04-23 02:08 | 39.85274 | -104.67097 | 5386 ft | 17 kts | 90° |
| 2026-04-23 02:08 | 39.85273 | -104.66936 | 5386 ft | 18 kts | 91° |
| 2026-04-23 02:09 | 39.85271 | -104.66764 | 5386 ft | 20 kts | 91° |
| 2026-04-23 02:09 | 39.85279 | -104.66582 | 5386 ft | 21 kts | 82° |
| 2026-04-23 02:09 | 39.85294 | -104.66393 | 5391 ft | 20 kts | 90° |
| 2026-04-23 02:09 | 39.85308 | -104.66261 | 5391 ft | 14 kts | 50° |
| 2026-04-23 02:10 | 39.85402 | -104.66240 | 5393 ft | 15 kts | 359° |
| 2026-04-23 02:10 | 39.85511 | -104.66242 | 5395 ft | 17 kts | 358° |
| 2026-04-23 02:10 | 39.85635 | -104.66240 | 5392 ft | 18 kts | 1° |
| 2026-04-23 02:10 | 39.85763 | -104.66237 | 5390 ft | 19 kts | 0° |
| 2026-04-23 02:11 | 39.85905 | -104.66235 | 5392 ft | 22 kts | 0° |
| 2026-04-23 02:11 | 39.86068 | -104.66232 | 5388 ft | 25 kts | 1° |
| 2026-04-23 02:11 | 39.86245 | -104.66230 | 5382 ft | 26 kts | 360° |
| 2026-04-23 02:11 | 39.86403 | -104.66228 | 5382 ft | 17 kts | 0° |
| 2026-04-23 02:12 | 39.86472 | -104.66222 | 5385 ft | 13 kts | 19° |
| 2026-04-23 02:12 | 39.86501 | -104.66108 | 5376 ft | 16 kts | 91° |
| 2026-04-23 02:12 | 39.86498 | -104.65944 | 5373 ft | 20 kts | 91° |
| 2026-04-23 02:12 | 39.86496 | -104.65757 | 5369 ft | 21 kts | 91° |
| 2026-04-23 02:13 | 39.86490 | -104.65556 | 5363 ft | 23 kts | 92° |
| 2026-04-23 02:13 | 39.86491 | -104.65351 | 5358 ft | 22 kts | 88° |
| 2026-04-23 02:13 | 39.86493 | -104.65151 | 5355 ft | 22 kts | 90° |
| 2026-04-23 02:13 | 39.86492 | -104.64957 | 5352 ft | 21 kts | 90° |
| 2026-04-23 02:14 | 39.86490 | -104.64768 | 5349 ft | 21 kts | 90° |
| 2026-04-23 02:14 | 39.86489 | -104.64569 | 5343 ft | 23 kts | 91° |
| 2026-04-23 02:14 | 39.86485 | -104.64356 | 5339 ft | 23 kts | 91° |
| 2026-04-23 02:14 | 39.86483 | -104.64194 | 5333 ft | 10 kts | 90° |
| 2026-04-23 02:15 | 39.86290 | -104.64134 | 5338 ft | 53 kts | 181° |
| 2026-04-23 02:15 | 39.85664 | -104.64141 | 5353 ft | 124 kts | 180° |
| 2026-04-23 02:15 | 39.84606 | -104.64147 | 5520 ft | 170 kts | 187° |
| 2026-04-23 02:16 | 39.83392 | -104.64172 | 6386 ft | 175 kts | 187° |
| 2026-04-23 02:16 | 39.82144 | -104.64189 | 7063 ft | 189 kts | 188° |
| 2026-04-23 02:16 | 39.80729 | -104.64214 | 7245 ft | 218 kts | 188° |
| 2026-04-23 02:16 | 39.79124 | -104.64240 | 7474 ft | 241 kts | 186° |
| 2026-04-23 02:17 | 39.77356 | -104.64262 | 7432 ft | 268 kts | 185° |
| 2026-04-23 02:17 | 39.75440 | -104.64282 | 7915 ft | 282 kts | 186° |
| 2026-04-23 02:17 | 39.73487 | -104.64295 | 9161 ft | 281 kts | 186° |
| 2026-04-23 02:17 | 39.71525 | -104.64314 | 10071 ft | 283 kts | 186° |
| 2026-04-23 02:18 | 39.69514 | -104.64340 | 10654 ft | 299 kts | 186° |
| 2026-04-23 02:18 | 39.67339 | -104.64375 | 10840 ft | 326 kts | 186° |
| 2026-04-23 02:18 | 39.64993 | -104.64428 | 11164 ft | 344 kts | 188° |
| 2026-04-23 02:18 | 39.62635 | -104.65072 | 11630 ft | 349 kts | 203° |
| 2026-04-23 02:19 | 39.60346 | -104.66149 | 12420 ft | 350 kts | 204° |
| 2026-04-23 02:19 | 39.58041 | -104.67206 | 13190 ft | 354 kts | 203° |
| 2026-04-23 02:19 | 39.55691 | -104.68245 | 13939 ft | 358 kts | 202° |
| 2026-04-23 02:19 | 39.53322 | -104.69274 | 14668 ft | 359 kts | 202° |
| 2026-04-23 02:20 | 39.50968 | -104.70245 | 15634 ft | 355 kts | 200° |
| 2026-04-23 02:20 | 39.48573 | -104.71112 | 16306 ft | 360 kts | 199° |
| 2026-04-23 02:20 | 39.46158 | -104.71948 | 16899 ft | 366 kts | 199° |
| 2026-04-23 02:20 | 39.43678 | -104.72807 | 17554 ft | 370 kts | 199° |
| 2026-04-23 02:21 | 39.41180 | -104.73684 | 18154 ft | 374 kts | 199° |
| 2026-04-23 02:21 | 39.38661 | -104.74578 | 18704 ft | 378 kts | 199° |
| 2026-04-23 02:21 | 39.36112 | -104.75489 | 19190 ft | 380 kts | 199° |
| 2026-04-23 02:21 | 39.33550 | -104.76405 | 19787 ft | 383 kts | 199° |
| 2026-04-23 02:22 | 39.30969 | -104.77327 | 20385 ft | 386 kts | 199° |
| 2026-04-23 02:22 | 39.28364 | -104.78258 | 20909 ft | 391 kts | 199° |
| 2026-04-23 02:22 | 39.25731 | -104.79197 | 21453 ft | 394 kts | 199° |
| 2026-04-23 02:22 | 39.23073 | -104.80144 | 22030 ft | 397 kts | 199° |
| 2026-04-23 02:23 | 39.20403 | -104.81095 | 22591 ft | 400 kts | 199° |
| 2026-04-23 02:23 | 39.17711 | -104.82046 | 23111 ft | 403 kts | 199° |
| 2026-04-23 02:23 | 39.14986 | -104.82969 | 23589 ft | 406 kts | 198° |
| 2026-04-23 02:23 | 39.12248 | -104.83882 | 24063 ft | 408 kts | 198° |
| 2026-04-23 02:24 | 39.09505 | -104.84820 | 24547 ft | 409 kts | 200° |
| 2026-04-23 02:24 | 39.06771 | -104.85859 | 24985 ft | 410 kts | 201° |
| 2026-04-23 02:24 | 39.04038 | -104.86944 | 25404 ft | 412 kts | 201° |
| 2026-04-23 02:24 | 39.01327 | -104.88028 | 25817 ft | 414 kts | 201° |
| 2026-04-23 02:25 | 38.98569 | -104.89124 | 26226 ft | 416 kts | 201° |
| 2026-04-23 02:25 | 38.95796 | -104.90215 | 26640 ft | 417 kts | 201° |
| 2026-04-23 02:25 | 38.93011 | -104.91301 | 27081 ft | 418 kts | 201° |
| 2026-04-23 02:25 | 38.90217 | -104.92387 | 27388 ft | 422 kts | 201° |
| 2026-04-23 02:26 | 38.87405 | -104.93477 | 27870 ft | 421 kts | 201° |
| 2026-04-23 02:26 | 38.84588 | -104.94568 | 28148 ft | 424 kts | 201° |
| 2026-04-23 02:26 | 38.81756 | -104.95664 | 28435 ft | 426 kts | 201° |
| 2026-04-23 02:26 | 38.78911 | -104.96763 | 28806 ft | 427 kts | 201° |
| 2026-04-23 02:27 | 38.76066 | -104.97861 | 29302 ft | 425 kts | 201° |
| 2026-04-23 02:27 | 38.73247 | -104.98947 | 29959 ft | 420 kts | 201° |
| 2026-04-23 02:27 | 38.70452 | -105.00020 | 30343 ft | 420 kts | 201° |
| 2026-04-23 02:27 | 38.67653 | -105.01095 | 30575 ft | 421 kts | 201° |
| 2026-04-23 02:28 | 38.64846 | -105.02175 | 30948 ft | 420 kts | 201° |
| 2026-04-23 02:28 | 38.62056 | -105.03246 | 31399 ft | 419 kts | 201° |
| 2026-04-23 02:28 | 38.59295 | -105.04305 | 31742 ft | 418 kts | 201° |
| 2026-04-23 02:28 | 38.56506 | -105.05375 | 32090 ft | 419 kts | 201° |
| 2026-04-23 02:29 | 38.53727 | -105.06440 | 32526 ft | 416 kts | 201° |
| 2026-04-23 02:29 | 38.50959 | -105.07499 | 33009 ft | 414 kts | 201° |
| 2026-04-23 02:29 | 38.48207 | -105.08551 | 33411 ft | 413 kts | 201° |
| 2026-04-23 02:29 | 38.45456 | -105.09603 | 33744 ft | 413 kts | 201° |
| 2026-04-23 02:30 | 38.42698 | -105.10657 | 34042 ft | 413 kts | 201° |
| 2026-04-23 02:30 | 38.39948 | -105.11706 | 34365 ft | 412 kts | 201° |
| 2026-04-23 02:30 | 38.37204 | -105.12752 | 34677 ft | 411 kts | 201° |
| 2026-04-23 02:30 | 38.34463 | -105.13797 | 34851 ft | 413 kts | 201° |
| 2026-04-23 02:31 | 38.31690 | -105.14855 | 34999 ft | 416 kts | 201° |
| 2026-04-23 02:31 | 38.28910 | -105.15913 | 35268 ft | 416 kts | 201° |
| 2026-04-23 02:31 | 38.26132 | -105.16967 | 35624 ft | 414 kts | 201° |
| 2026-04-23 02:32 | 38.20604 | -105.19066 | 35660 ft | 417 kts | 201° |
| 2026-04-23 02:32 | 38.15071 | -105.21161 | 35672 ft | 414 kts | 201° |
| 2026-04-23 02:33 | 38.09551 | -105.23250 | 35694 ft | 413 kts | 200° |
| 2026-04-23 02:33 | 38.03970 | -105.25361 | 35729 ft | 423 kts | 200° |
| 2026-04-23 02:34 | 37.98306 | -105.27498 | 35723 ft | 425 kts | 200° |
| 2026-04-23 02:34 | 37.92630 | -105.29635 | 35765 ft | 426 kts | 201° |
| 2026-04-23 02:35 | 37.87039 | -105.31966 | 35759 ft | 420 kts | 207° |
| 2026-04-23 02:35 | 37.81773 | -105.34881 | 35735 ft | 408 kts | 209° |
| 2026-04-23 02:36 | 37.76597 | -105.37857 | 35772 ft | 409 kts | 209° |
| 2026-04-23 02:36 | 37.71379 | -105.40789 | 35774 ft | 410 kts | 208° |
| 2026-04-23 02:37 | 37.66137 | -105.43679 | 35765 ft | 411 kts | 208° |
| 2026-04-23 02:37 | 37.60881 | -105.46552 | 35766 ft | 411 kts | 208° |
| 2026-04-23 02:38 | 37.55652 | -105.49410 | 35807 ft | 411 kts | 208° |
| 2026-04-23 02:38 | 37.50397 | -105.52270 | 35848 ft | 412 kts | 208° |
| 2026-04-23 02:39 | 37.45121 | -105.55137 | 35868 ft | 413 kts | 208° |
| 2026-04-23 02:39 | 37.39831 | -105.58008 | 35885 ft | 413 kts | 208° |
| 2026-04-23 02:40 | 37.34578 | -105.60856 | 35893 ft | 414 kts | 208° |
| 2026-04-23 02:40 | 37.29262 | -105.63734 | 35888 ft | 414 kts | 208° |
| 2026-04-23 02:41 | 37.23994 | -105.66576 | 35804 ft | 414 kts | 208° |
| 2026-04-23 02:41 | 37.18710 | -105.69430 | 35792 ft | 413 kts | 208° |
| 2026-04-23 02:42 | 37.13426 | -105.72279 | 35788 ft | 413 kts | 208° |
| 2026-04-23 02:42 | 37.08155 | -105.75116 | 35793 ft | 412 kts | 208° |
| 2026-04-23 02:43 | 37.02880 | -105.77951 | 35811 ft | 413 kts | 208° |
| 2026-04-23 02:43 | 36.97584 | -105.80792 | 35811 ft | 414 kts | 208° |
| 2026-04-23 02:44 | 36.92291 | -105.83628 | 35812 ft | 414 kts | 208° |
| 2026-04-23 02:44 | 36.86980 | -105.86468 | 35770 ft | 415 kts | 208° |
| 2026-04-23 02:45 | 36.81686 | -105.89295 | 35807 ft | 417 kts | 208° |
| 2026-04-23 02:45 | 36.76344 | -105.92144 | 35822 ft | 418 kts | 208° |
| 2026-04-23 02:46 | 36.70974 | -105.95003 | 35830 ft | 420 kts | 208° |
| 2026-04-23 02:46 | 36.65579 | -105.97871 | 35821 ft | 422 kts | 208° |
| 2026-04-23 02:47 | 36.60168 | -106.00742 | 35814 ft | 423 kts | 208° |
| 2026-04-23 02:47 | 36.54744 | -106.03615 | 35820 ft | 424 kts | 208° |
| 2026-04-23 02:48 | 36.49342 | -106.06475 | 35809 ft | 424 kts | 208° |
| 2026-04-23 02:48 | 36.43905 | -106.09346 | 35820 ft | 424 kts | 208° |
| 2026-04-23 02:49 | 36.38470 | -106.12213 | 35812 ft | 423 kts | 208° |
| 2026-04-23 02:49 | 36.33079 | -106.15052 | 35825 ft | 422 kts | 208° |
| 2026-04-23 02:50 | 36.27678 | -106.17892 | 35804 ft | 421 kts | 208° |
| 2026-04-23 02:50 | 36.22295 | -106.20718 | 35819 ft | 418 kts | 208° |
| 2026-04-23 02:51 | 36.16942 | -106.23525 | 35866 ft | 416 kts | 208° |
| 2026-04-23 02:51 | 36.11618 | -106.26311 | 35915 ft | 415 kts | 208° |
| 2026-04-23 02:52 | 36.06322 | -106.29077 | 35962 ft | 412 kts | 208° |
| 2026-04-23 02:52 | 36.00981 | -106.31873 | 36002 ft | 420 kts | 208° |
| 2026-04-23 02:53 | 35.95614 | -106.34674 | 36038 ft | 423 kts | 208° |
| 2026-04-23 02:53 | 35.90186 | -106.37498 | 36027 ft | 422 kts | 209° |
| 2026-04-23 02:54 | 35.84828 | -106.40275 | 35796 ft | 414 kts | 209° |
| 2026-04-23 02:54 | 35.79504 | -106.43040 | 35832 ft | 416 kts | 209° |
| 2026-04-23 02:55 | 35.74157 | -106.45814 | 35829 ft | 417 kts | 209° |
| 2026-04-23 02:55 | 35.68801 | -106.48579 | 35823 ft | 417 kts | 209° |
| 2026-04-23 02:56 | 35.63435 | -106.51353 | 35811 ft | 419 kts | 209° |
| 2026-04-23 02:56 | 35.58093 | -106.54113 | 35772 ft | 419 kts | 209° |
| 2026-04-23 02:57 | 35.52701 | -106.56892 | 35783 ft | 420 kts | 209° |
| 2026-04-23 02:57 | 35.47301 | -106.59669 | 35781 ft | 420 kts | 209° |
| 2026-04-23 02:58 | 35.41893 | -106.62448 | 35767 ft | 421 kts | 209° |
| 2026-04-23 02:58 | 35.37400 | -106.64752 | 35771 ft | 421 kts | 209° |
| 2026-04-23 02:59 | 35.31119 | -106.67970 | 35760 ft | 420 kts | 210° |
| 2026-04-23 02:59 | 35.26635 | -106.70264 | 35756 ft | 420 kts | 210° |
| 2026-04-23 03:00 | 35.21252 | -106.73014 | 35776 ft | 419 kts | 210° |
| 2026-04-23 03:00 | 35.15867 | -106.75762 | 35768 ft | 419 kts | 210° |
| 2026-04-23 03:00 | 35.13174 | -106.77134 | 35982 ft | 418 kts | 210° |
| 2026-04-23 03:01 | 35.10490 | -106.78501 | 35981 ft | 418 kts | 210° |
| 2026-04-23 03:01 | 35.05136 | -106.81288 | 35956 ft | 414 kts | 215° |
| 2026-04-23 03:02 | 35.00454 | -106.85119 | 35952 ft | 403 kts | 224° |
| 2026-04-23 03:02 | 34.95985 | -106.89275 | 35755 ft | 404 kts | 224° |
| 2026-04-23 03:03 | 34.91503 | -106.93413 | 35754 ft | 405 kts | 224° |
| 2026-04-23 03:03 | 34.86998 | -106.97545 | 35763 ft | 405 kts | 224° |
| 2026-04-23 03:04 | 34.82479 | -107.01675 | 35750 ft | 406 kts | 224° |
| 2026-04-23 03:04 | 34.77981 | -107.05779 | 35741 ft | 406 kts | 224° |
| 2026-04-23 03:05 | 34.73461 | -107.09897 | 35753 ft | 406 kts | 224° |
| 2026-04-23 03:05 | 34.68933 | -107.14016 | 35757 ft | 406 kts | 224° |
| 2026-04-23 03:06 | 34.64403 | -107.18131 | 35762 ft | 407 kts | 224° |
| 2026-04-23 03:06 | 34.59869 | -107.22246 | 35778 ft | 407 kts | 224° |
| 2026-04-23 03:07 | 34.55335 | -107.26353 | 35780 ft | 407 kts | 224° |
| 2026-04-23 03:07 | 34.50789 | -107.30466 | 35777 ft | 407 kts | 224° |
| 2026-04-23 03:08 | 34.46281 | -107.34539 | 35788 ft | 407 kts | 224° |
| 2026-04-23 03:08 | 34.41786 | -107.38595 | 35806 ft | 406 kts | 224° |
| 2026-04-23 03:09 | 34.37205 | -107.42722 | 35806 ft | 406 kts | 224° |
| 2026-04-23 03:09 | 34.32668 | -107.46804 | 35820 ft | 407 kts | 224° |
| 2026-04-23 03:10 | 34.28120 | -107.50889 | 35790 ft | 406 kts | 224° |
| 2026-04-23 03:10 | 34.23595 | -107.54945 | 35828 ft | 406 kts | 224° |
| 2026-04-23 03:11 | 34.19057 | -107.59015 | 35812 ft | 406 kts | 224° |
| 2026-04-23 03:11 | 34.14538 | -107.63060 | 35829 ft | 407 kts | 224° |
| 2026-04-23 03:12 | 34.09985 | -107.67130 | 35837 ft | 407 kts | 224° |
| 2026-04-23 03:12 | 34.05433 | -107.71193 | 35836 ft | 408 kts | 224° |
| 2026-04-23 03:13 | 34.00868 | -107.75261 | 35849 ft | 408 kts | 224° |
| 2026-04-23 03:13 | 33.96303 | -107.79323 | 35841 ft | 408 kts | 224° |
| 2026-04-23 03:14 | 33.91739 | -107.83380 | 35829 ft | 407 kts | 224° |
| 2026-04-23 03:14 | 33.87197 | -107.87409 | 35843 ft | 406 kts | 224° |
| 2026-04-23 03:15 | 33.82682 | -107.91411 | 35865 ft | 406 kts | 224° |
| 2026-04-23 03:15 | 33.78112 | -107.95458 | 35866 ft | 405 kts | 224° |
| 2026-04-23 03:16 | 33.73577 | -107.99466 | 35863 ft | 405 kts | 224° |
| 2026-04-23 03:16 | 33.66758 | -108.05482 | 35876 ft | 404 kts | 224° |
| 2026-04-23 03:17 | 33.62262 | -108.09443 | 35856 ft | 403 kts | 224° |
| 2026-04-23 03:17 | 33.57743 | -108.13419 | 35880 ft | 403 kts | 224° |
| 2026-04-23 03:18 | 33.53256 | -108.17362 | 35900 ft | 403 kts | 224° |
| 2026-04-23 03:18 | 33.48752 | -108.21315 | 35887 ft | 404 kts | 224° |
| 2026-04-23 03:19 | 33.44155 | -108.25344 | 35884 ft | 404 kts | 224° |
| 2026-04-23 03:19 | 33.39606 | -108.29326 | 35886 ft | 404 kts | 224° |
| 2026-04-23 03:20 | 33.35057 | -108.33302 | 35842 ft | 405 kts | 224° |
| 2026-04-23 03:20 | 33.30538 | -108.37247 | 35873 ft | 405 kts | 224° |
| 2026-04-23 03:21 | 33.25973 | -108.41226 | 35868 ft | 407 kts | 224° |
| 2026-04-23 03:21 | 33.21380 | -108.45225 | 35858 ft | 409 kts | 224° |
| 2026-04-23 03:22 | 33.16764 | -108.49241 | 35860 ft | 411 kts | 224° |
| 2026-04-23 03:22 | 33.12131 | -108.53262 | 35862 ft | 412 kts | 224° |
| 2026-04-23 03:23 | 33.07495 | -108.57282 | 35855 ft | 413 kts | 224° |
| 2026-04-23 03:23 | 33.02843 | -108.61307 | 35851 ft | 412 kts | 224° |
| 2026-04-23 03:24 | 32.98206 | -108.65316 | 35840 ft | 412 kts | 224° |
| 2026-04-23 03:24 | 32.93564 | -108.69324 | 35844 ft | 410 kts | 224° |
| 2026-04-23 03:25 | 32.88975 | -108.73283 | 35847 ft | 409 kts | 224° |
| 2026-04-23 03:25 | 32.84367 | -108.77240 | 35848 ft | 407 kts | 224° |
| 2026-04-23 03:26 | 32.79779 | -108.81194 | 35849 ft | 407 kts | 224° |
| 2026-04-23 03:26 | 32.75194 | -108.85137 | 35803 ft | 406 kts | 224° |
| 2026-04-23 03:27 | 32.70614 | -108.89067 | 35827 ft | 405 kts | 224° |
| 2026-04-23 03:27 | 32.66047 | -108.92981 | 35835 ft | 405 kts | 224° |
| 2026-04-23 03:28 | 32.61483 | -108.96888 | 35836 ft | 405 kts | 224° |
| 2026-04-23 03:28 | 32.56926 | -109.00785 | 35492 ft | 411 kts | 224° |
| 2026-04-23 03:29 | 32.54609 | -109.02767 | 34953 ft | 410 kts | 224° |
| 2026-04-23 03:29 | 32.52291 | -109.04745 | 34287 ft | 411 kts | 224° |
| 2026-04-23 03:29 | 32.49967 | -109.06725 | 33613 ft | 412 kts | 224° |
| 2026-04-23 03:29 | 32.47630 | -109.08718 | 32842 ft | 414 kts | 224° |
| 2026-04-23 03:30 | 32.45290 | -109.10711 | 32070 ft | 415 kts | 223° |
| 2026-04-23 03:30 | 32.42940 | -109.12708 | 31495 ft | 413 kts | 223° |
| 2026-04-23 03:30 | 32.40620 | -109.14678 | 30979 ft | 409 kts | 223° |
| 2026-04-23 03:30 | 32.38318 | -109.16635 | 30469 ft | 406 kts | 223° |
| 2026-04-23 03:31 | 32.36037 | -109.18574 | 29954 ft | 402 kts | 223° |
| 2026-04-23 03:31 | 32.33795 | -109.20478 | 29370 ft | 399 kts | 223° |
| 2026-04-23 03:31 | 32.31548 | -109.22384 | 28799 ft | 395 kts | 223° |
| 2026-04-23 03:31 | 32.29427 | -109.24367 | 28276 ft | 382 kts | 232° |
| 2026-04-23 03:32 | 32.27865 | -109.26827 | 27835 ft | 368 kts | 244° |
| 2026-04-23 03:32 | 32.26733 | -109.29498 | 27347 ft | 360 kts | 251° |
| 2026-04-23 03:32 | 32.26086 | -109.32323 | 26897 ft | 357 kts | 262° |
| 2026-04-23 03:32 | 32.25715 | -109.35259 | 26464 ft | 364 kts | 262° |
| 2026-04-23 03:33 | 32.25356 | -109.38241 | 25995 ft | 367 kts | 262° |
| 2026-04-23 03:33 | 32.24995 | -109.41213 | 25537 ft | 365 kts | 262° |
| 2026-04-23 03:33 | 32.24630 | -109.44169 | 25076 ft | 362 kts | 262° |
| 2026-04-23 03:33 | 32.24261 | -109.47103 | 24622 ft | 360 kts | 262° |
| 2026-04-23 03:34 | 32.23887 | -109.50031 | 24158 ft | 359 kts | 262° |
| 2026-04-23 03:34 | 32.23513 | -109.52949 | 23696 ft | 359 kts | 262° |
| 2026-04-23 03:34 | 32.23137 | -109.55864 | 23203 ft | 358 kts | 262° |
| 2026-04-23 03:34 | 32.22763 | -109.58758 | 22724 ft | 354 kts | 261° |
| 2026-04-23 03:35 | 32.22397 | -109.61577 | 22246 ft | 352 kts | 261° |
| 2026-04-23 03:35 | 32.22027 | -109.64436 | 21803 ft | 351 kts | 261° |
| 2026-04-23 03:35 | 32.21657 | -109.67278 | 21352 ft | 350 kts | 261° |
| 2026-04-23 03:35 | 32.21284 | -109.70112 | 20913 ft | 348 kts | 260° |
| 2026-04-23 03:36 | 32.20741 | -109.72896 | 20526 ft | 346 kts | 256° |
| 2026-04-23 03:36 | 32.20112 | -109.75632 | 20148 ft | 344 kts | 255° |
| 2026-04-23 03:36 | 32.19474 | -109.78345 | 19772 ft | 343 kts | 255° |
| 2026-04-23 03:36 | 32.18836 | -109.81059 | 19404 ft | 342 kts | 255° |
| 2026-04-23 03:37 | 32.18203 | -109.83759 | 19028 ft | 341 kts | 255° |
| 2026-04-23 03:37 | 32.17573 | -109.86464 | 18652 ft | 341 kts | 255° |
| 2026-04-23 03:37 | 32.16954 | -109.89128 | 18276 ft | 341 kts | 255° |
| 2026-04-23 03:37 | 32.16328 | -109.91826 | 17846 ft | 341 kts | 255° |
| 2026-04-23 03:38 | 32.15703 | -109.94521 | 17458 ft | 340 kts | 255° |
| 2026-04-23 03:38 | 32.15080 | -109.97209 | 17073 ft | 338 kts | 255° |
| 2026-04-23 03:38 | 32.14460 | -109.99879 | 16702 ft | 337 kts | 255° |
| 2026-04-23 03:38 | 32.13841 | -110.02543 | 16317 ft | 336 kts | 255° |
| 2026-04-23 03:39 | 32.13224 | -110.05198 | 15943 ft | 335 kts | 255° |
| 2026-04-23 03:39 | 32.12607 | -110.07848 | 15580 ft | 334 kts | 255° |
| 2026-04-23 03:39 | 32.11994 | -110.10480 | 15272 ft | 331 kts | 255° |
| 2026-04-23 03:39 | 32.11383 | -110.13100 | 14926 ft | 331 kts | 254° |
| 2026-04-23 03:40 | 32.10772 | -110.15717 | 14559 ft | 331 kts | 254° |
| 2026-04-23 03:40 | 32.10169 | -110.18298 | 14213 ft | 330 kts | 254° |
| 2026-04-23 03:40 | 32.09560 | -110.20904 | 13858 ft | 330 kts | 254° |
| 2026-04-23 03:40 | 32.08946 | -110.23523 | 13454 ft | 330 kts | 254° |
| 2026-04-23 03:41 | 32.08337 | -110.26125 | 13059 ft | 328 kts | 254° |
| 2026-04-23 03:41 | 32.07734 | -110.28699 | 12673 ft | 323 kts | 254° |
| 2026-04-23 03:41 | 32.07140 | -110.31227 | 12317 ft | 318 kts | 254° |
| 2026-04-23 03:41 | 32.06553 | -110.33722 | 11967 ft | 313 kts | 254° |
| 2026-04-23 03:42 | 32.05991 | -110.36182 | 11639 ft | 309 kts | 254° |
| 2026-04-23 03:42 | 32.05444 | -110.38621 | 11308 ft | 305 kts | 254° |
| 2026-04-23 03:42 | 32.04908 | -110.41019 | 10997 ft | 300 kts | 255° |
| 2026-04-23 03:42 | 32.04378 | -110.43381 | 10680 ft | 297 kts | 254° |
| 2026-04-23 03:43 | 32.03857 | -110.45698 | 10377 ft | 294 kts | 254° |
| 2026-04-23 03:43 | 32.03335 | -110.48015 | 10076 ft | 291 kts | 254° |
| 2026-04-23 03:43 | 32.02822 | -110.50288 | 9963 ft | 281 kts | 254° |
| 2026-04-23 03:43 | 32.02322 | -110.52497 | 9657 ft | 279 kts | 254° |
| 2026-04-23 03:44 | 32.01823 | -110.54700 | 9337 ft | 277 kts | 254° |
| 2026-04-23 03:44 | 32.01326 | -110.56893 | 9001 ft | 276 kts | 254° |
| 2026-04-23 03:44 | 32.00829 | -110.59080 | 8676 ft | 275 kts | 254° |
| 2026-04-23 03:44 | 32.00342 | -110.61226 | 8354 ft | 272 kts | 254° |
| 2026-04-23 03:45 | 31.99860 | -110.63350 | 8082 ft | 263 kts | 254° |
| 2026-04-23 03:45 | 31.99395 | -110.65398 | 7773 ft | 255 kts | 255° |
| 2026-04-23 03:45 | 31.98944 | -110.67383 | 7536 ft | 243 kts | 255° |
| 2026-04-23 03:45 | 31.98520 | -110.69245 | 7277 ft | 229 kts | 255° |
| 2026-04-23 03:46 | 31.98121 | -110.70996 | 7075 ft | 213 kts | 255° |
| 2026-04-23 03:46 | 31.97873 | -110.72079 | 6958 ft | 202 kts | 255° |
| 2026-04-23 03:46 | 31.97519 | -110.73632 | 6793 ft | 192 kts | 255° |
| 2026-04-23 03:46 | 31.97102 | -110.75613 | 6564 ft | 185 kts | 266° |
| 2026-04-23 03:47 | 31.97243 | -110.76600 | 6459 ft | 184 kts | 296° |
| 2026-04-23 03:47 | 31.98312 | -110.78182 | 6164 ft | 191 kts | 308° |
| 2026-04-23 03:47 | 31.98918 | -110.78966 | 5983 ft | 192 kts | 310° |
| 2026-04-23 03:47 | 31.99843 | -110.80100 | 5722 ft | 191 kts | 311° |
| 2026-04-23 03:48 | 32.00775 | -110.81209 | 5451 ft | 191 kts | 312° |
| 2026-04-23 03:48 | 32.01713 | -110.82315 | 5191 ft | 190 kts | 311° |
| 2026-04-23 03:48 | 32.02630 | -110.83393 | 4943 ft | 186 kts | 311° |
| 2026-04-23 03:48 | 32.03532 | -110.84452 | 4637 ft | 179 kts | 312° |
| 2026-04-23 03:49 | 32.04394 | -110.85466 | 4453 ft | 175 kts | 314° |
| 2026-04-23 03:49 | 32.05268 | -110.86489 | 4196 ft | 172 kts | 310° |
| 2026-04-23 03:49 | 32.06093 | -110.87459 | 3920 ft | 161 kts | 312° |
| 2026-04-23 03:49 | 32.06845 | -110.88342 | 3681 ft | 148 kts | 312° |
| 2026-04-23 03:50 | 32.07574 | -110.89200 | 3470 ft | 146 kts | 314° |
| 2026-04-23 03:50 | 32.08282 | -110.90033 | 3293 ft | 143 kts | 314° |
| 2026-04-23 03:50 | 32.09007 | -110.90885 | 3027 ft | 150 kts | 313° |
| 2026-04-23 03:50 | 32.09740 | -110.91761 | 2852 ft | 151 kts | 312° |
| 2026-04-23 03:51 | 32.10496 | -110.92625 | 2661 ft | 148 kts | 311° |
| 2026-04-23 03:51 | 32.11133 | -110.93380 | 2628 ft | 105 kts | 315° |
| 2026-04-23 03:51 | 32.11502 | -110.93811 | 2615 ft | 53 kts | 315° |
| 2026-04-23 03:51 | 32.11701 | -110.94046 | 2608 ft | 30 kts | 315° |
| 2026-04-23 03:52 | 32.11813 | -110.94097 | 2606 ft | 17 kts | 1° |
| 2026-04-23 03:52 | 32.11929 | -110.94096 | 2604 ft | 16 kts | 360° |
| 2026-04-23 03:52 | 32.12017 | -110.94087 | 2605 ft | 11 kts | 37° |
| 2026-04-23 03:52 | 32.11995 | -110.94009 | 2607 ft | 11 kts | 132° |
| 2026-04-23 03:53 | 32.11944 | -110.93943 | 2609 ft | 11 kts | 133° |
| 2026-04-23 03:53 | 32.11892 | -110.93881 | 2611 ft | 11 kts | 136° |
| 2026-04-23 03:53 | 32.11844 | -110.93828 | 2613 ft | 8 kts | 136° |
| 2026-04-23 03:53 | 32.11804 | -110.93784 | 2614 ft | 8 kts | 137° |
| 2026-04-23 03:54 | 32.11776 | -110.93734 | 2615 ft | 7 kts | 90° |
| 2026-04-23 03:54 | 32.11804 | -110.93686 | 2615 ft | 8 kts | 26° |
| 2026-04-23 03:54 | 32.11841 | -110.93683 | 2614 ft | 4 kts | 354° |
| 2026-04-23 03:54 | 32.11850 | -110.93685 | 2614 ft | 0 kts | 355° |